createdAt,value
2023-04-11T00:01:49.684Z,0.90
2023-04-11T00:04:39.204Z,0.95
2023-04-11T00:07:27.979Z,0.98
2023-04-11T00:10:16.402Z,0.85
2023-04-11T00:13:07.328Z,0.90
2023-04-11T00:15:55.896Z,1.08
2023-04-11T00:18:44.746Z,1.00
2023-04-11T00:21:36.969Z,0.80
2023-04-11T00:24:25.911Z,0.85
2023-04-11T00:27:14.357Z,0.70
2023-04-11T00:30:05.592Z,1.10
2023-04-11T00:32:54.107Z,0.75
2023-04-11T00:35:42.545Z,1.00
2023-04-11T00:38:31.113Z,1.20
2023-04-11T00:41:19.484Z,0.90
2023-04-11T00:44:08.516Z,0.90
2023-04-11T00:46:59.445Z,1.02
2023-04-11T00:49:47.982Z,1.33
2023-04-11T00:52:39.303Z,1.10
2023-04-11T00:55:28.313Z,1.38
2023-04-11T00:58:17.556Z,0.93
2023-04-11T01:01:09.231Z,1.13
2023-04-11T01:04:01.117Z,1.10
2023-04-11T01:06:57.431Z,1.25
2023-04-11T01:09:54.682Z,1.08
2023-04-11T01:12:44.986Z,1.10
2023-04-11T01:15:33.485Z,1.48
2023-04-11T01:18:21.996Z,1.25
2023-04-11T01:21:11.835Z,1.65
2023-04-11T01:24:03.662Z,1.40
2023-04-11T01:26:52.495Z,1.52
2023-04-11T01:29:41.606Z,1.60
2023-04-11T01:32:30.507Z,1.50
2023-04-11T01:35:20.147Z,1.67
2023-04-11T01:38:08.743Z,1.60
2023-04-11T01:41:00.935Z,1.55
2023-04-11T01:43:49.509Z,1.85
2023-04-11T01:46:38.017Z,2.20
2023-04-11T01:49:26.802Z,2.25
2023-04-11T01:52:15.154Z,1.83
2023-04-11T01:55:03.671Z,2.13
2023-04-11T01:57:53.543Z,2.00
2023-04-11T02:00:41.953Z,2.08
2023-04-11T02:03:30.647Z,1.92
2023-04-11T02:06:19.311Z,2.17
2023-04-11T02:09:07.994Z,2.22
2023-04-11T02:11:56.960Z,1.98
2023-04-11T02:14:47.243Z,2.15
2023-04-11T02:17:36.786Z,2.75
2023-04-11T02:20:25.380Z,2.50
2023-04-11T02:23:14.121Z,2.78
2023-04-11T02:26:03.186Z,2.33
2023-04-11T02:28:51.474Z,2.50
2023-04-11T02:31:41.368Z,2.50
2023-04-11T02:34:30.911Z,2.42
2023-04-11T02:37:19.251Z,2.00
2023-04-11T02:40:09.725Z,2.45
2023-04-11T02:43:01.064Z,2.42
2023-04-11T02:45:50.927Z,1.90
2023-04-11T02:48:42.168Z,2.47
2023-04-11T02:51:31.489Z,2.00
2023-04-11T02:54:20.401Z,2.42
2023-04-11T02:57:09.091Z,2.28
2023-04-11T02:59:57.650Z,2.42
2023-04-11T03:02:56.510Z,2.33
2023-04-11T03:05:48.592Z,2.47
2023-04-11T03:08:41.146Z,2.40
2023-04-11T03:11:29.527Z,2.75
2023-04-11T03:14:18.564Z,2.90
2023-04-11T03:17:06.859Z,2.95
2023-04-11T03:19:55.672Z,3.25
2023-04-11T03:22:46.585Z,2.97
2023-04-11T03:25:50.945Z,2.70
2023-04-11T03:28:40.918Z,2.90
2023-04-11T03:31:30.378Z,2.88
2023-04-11T03:34:19.174Z,3.03
2023-04-11T03:37:07.986Z,3.33
2023-04-11T03:39:59.384Z,2.65
2023-04-11T03:42:48.261Z,2.42
2023-04-11T03:45:40.908Z,3.35
2023-04-11T03:48:36.898Z,2.60
2023-04-11T03:51:29.602Z,2.53
2023-04-11T03:54:30.400Z,2.67
2023-04-11T03:57:20.353Z,3.10
2023-04-11T04:00:11.512Z,3.67
2023-04-11T04:03:15.798Z,2.30
2023-04-11T04:06:05.376Z,3.00
2023-04-11T04:08:54.419Z,2.40
2023-04-11T04:11:43.213Z,2.67
2023-04-11T04:14:33.200Z,2.72
2023-04-11T04:17:22.444Z,1.98
2023-04-11T04:20:12.337Z,2.47
2023-04-11T04:23:04.631Z,2.40
2023-04-11T04:26:07.877Z,2.03
2023-04-11T04:29:04.652Z,2.25
2023-04-11T04:32:11.150Z,2.88
2023-04-11T04:35:03.746Z,2.65
2023-04-11T04:37:57.316Z,3.08
2023-04-11T04:40:59.055Z,2.47
2023-04-11T04:43:49.058Z,2.47
2023-04-11T04:46:54.661Z,2.22
2023-04-11T04:49:47.797Z,2.28
2023-04-11T04:52:37.631Z,2.72
2023-04-11T04:55:28.927Z,2.10
2023-04-11T04:58:17.613Z,2.42
2023-04-11T05:01:09.258Z,2.05
2023-04-11T05:04:00.457Z,2.20
2023-04-11T05:07:05.147Z,2.30
2023-04-11T05:09:54.342Z,3.08
2023-04-11T05:12:46.455Z,2.03
2023-04-11T05:15:35.342Z,2.38
2023-04-11T05:18:23.726Z,2.03
2023-04-11T05:21:13.622Z,2.03
2023-04-11T05:24:06.532Z,2.42
2023-04-11T05:26:58.191Z,2.25
2023-04-11T05:29:47.520Z,2.55
2023-04-11T05:32:38.329Z,1.63
2023-04-11T05:35:27.414Z,1.83
2023-04-11T05:38:17.267Z,2.30
2023-04-11T05:41:08.200Z,1.93
2023-04-11T05:43:56.894Z,1.98
2023-04-11T05:46:46.623Z,1.38
2023-04-11T05:49:35.033Z,1.60
2023-04-11T05:52:23.483Z,1.63
2023-04-11T05:55:12.925Z,1.30
2023-04-11T05:58:02.760Z,1.60
2023-04-11T06:00:51.273Z,1.40
2023-04-11T06:03:40.130Z,1.50
2023-04-11T06:06:29.109Z,1.45
2023-04-11T06:09:17.893Z,1.60
2023-04-11T06:12:06.891Z,1.52
2023-04-11T06:14:56.816Z,1.60
2023-04-11T06:17:45.990Z,1.65
2023-04-11T06:20:34.766Z,1.30
2023-04-11T06:23:23.233Z,1.33
2023-04-11T06:26:11.732Z,1.48
2023-04-11T06:29:00.251Z,1.70
2023-04-11T06:31:50.200Z,1.95
2023-04-11T06:34:40.324Z,1.77
2023-04-11T06:37:28.812Z,1.40
2023-04-11T06:40:17.459Z,1.55
2023-04-11T06:43:05.970Z,1.38
2023-04-11T06:45:54.345Z,1.30
2023-04-11T06:48:44.277Z,1.50
2023-04-11T06:51:32.795Z,1.58
2023-04-11T06:54:21.821Z,1.13
2023-04-11T06:57:13.944Z,1.38
2023-04-11T07:00:03.509Z,1.38
2023-04-11T07:02:52.577Z,1.35
2023-04-11T07:05:42.738Z,0.98
2023-04-11T07:08:31.344Z,1.45
2023-04-11T07:11:20.182Z,1.63
2023-04-11T07:14:08.851Z,1.40
2023-04-11T07:16:57.327Z,1.38
2023-04-11T07:19:45.690Z,1.15
2023-04-11T07:22:36.490Z,1.70
2023-04-11T07:25:30.571Z,1.00
2023-04-11T07:28:19.277Z,0.90
2023-04-11T07:31:09.644Z,0.93
2023-04-11T07:33:58.457Z,1.10
2023-04-11T07:36:47.573Z,1.45
2023-04-11T07:39:37.735Z,0.88
2023-04-11T07:42:26.318Z,0.93
2023-04-11T07:45:14.891Z,1.02
2023-04-11T07:48:03.373Z,1.00
2023-04-11T07:50:52.125Z,1.15
2023-04-11T07:53:40.557Z,1.10
2023-04-11T07:56:30.429Z,1.02
2023-04-11T07:59:19.097Z,1.10
2023-04-11T08:02:08.253Z,1.20
2023-04-11T08:04:57.058Z,1.02
2023-04-11T08:07:45.623Z,1.10
2023-04-11T08:10:34.268Z,1.10
2023-04-11T08:13:26.130Z,1.42
2023-04-11T08:16:16.219Z,0.98
2023-04-11T08:19:04.758Z,0.82
2023-04-11T08:21:53.163Z,0.88
2023-04-11T08:24:41.654Z,1.40
2023-04-11T08:27:30.291Z,1.30
2023-04-11T08:30:22.174Z,1.27
2023-04-11T08:33:12.196Z,1.10
2023-04-11T08:36:00.692Z,1.08
2023-04-11T08:38:49.102Z,1.30
2023-04-11T08:41:39.781Z,1.02
2023-04-11T08:44:28.587Z,1.23
2023-04-11T08:47:18.401Z,0.95
2023-04-11T08:50:08.688Z,1.17
2023-04-11T08:53:01.409Z,1.63
2023-04-11T08:55:51.959Z,1.20
2023-04-11T08:58:41.891Z,1.13
2023-04-11T09:01:34.097Z,1.27
2023-04-11T09:04:41.666Z,1.25
2023-04-11T09:07:30.280Z,0.88
2023-04-11T09:10:24.075Z,0.88
2023-04-11T09:13:22.395Z,0.80
2023-04-11T09:16:12.937Z,1.25
2023-04-11T09:19:01.510Z,0.70
2023-04-11T09:21:51.699Z,1.00
2023-04-11T09:24:40.232Z,1.10
2023-04-11T09:27:28.802Z,1.25
2023-04-11T09:30:24.333Z,1.15
2023-04-11T09:33:24.870Z,1.27
2023-04-11T09:36:21.913Z,1.30
2023-04-11T09:39:21.598Z,1.45
2023-04-11T09:42:25.763Z,1.92
2023-04-11T09:45:19.473Z,1.20
2023-04-11T09:48:08.132Z,1.33
2023-04-11T09:50:58.809Z,1.50
2023-04-11T09:53:48.053Z,1.70
2023-04-11T09:56:38.394Z,1.40
2023-04-11T09:59:28.645Z,1.23
2023-04-11T10:02:17.220Z,0.93
2023-04-11T10:05:08.654Z,1.20
2023-04-11T10:08:05.001Z,0.90
2023-04-11T10:10:54.117Z,0.70
2023-04-11T10:13:45.548Z,1.17
2023-04-11T10:16:34.553Z,1.10
2023-04-11T10:19:27.172Z,0.90
2023-04-11T10:23:01.914Z,0.90
2023-04-11T10:25:53.476Z,1.20
2023-04-11T10:28:43.385Z,1.40
2023-04-11T10:31:31.949Z,1.02
2023-04-11T10:34:20.565Z,1.15
2023-04-11T10:37:12.086Z,0.90
2023-04-11T10:40:10.882Z,0.90
2023-04-11T10:43:22.518Z,1.20
2023-04-11T10:46:24.507Z,1.10
2023-04-11T10:49:13.264Z,1.60
2023-04-11T10:52:20.539Z,1.38
2023-04-11T10:55:18.025Z,0.93
2023-04-11T10:58:08.134Z,1.00
2023-04-11T11:01:37.238Z,1.40
2023-04-11T11:04:35.774Z,1.30
2023-04-11T11:07:25.567Z,1.10
2023-04-11T11:10:14.092Z,1.10
2023-04-11T11:13:03.893Z,1.15
2023-04-11T11:15:52.563Z,0.90
2023-04-11T11:18:46.287Z,0.88
2023-04-11T11:21:36.029Z,1.00
2023-04-11T11:24:26.512Z,1.10
2023-04-11T11:27:21.497Z,1.38
2023-04-11T11:30:14.803Z,1.02
2023-04-11T11:33:17.885Z,1.00
2023-04-11T11:36:10.237Z,0.80
2023-04-11T11:38:58.856Z,0.73
2023-04-11T11:41:47.600Z,1.00
2023-04-11T11:44:36.061Z,0.82
2023-04-11T11:47:25.712Z,0.73
2023-04-11T11:50:27.456Z,0.85
2023-04-11T11:53:17.594Z,0.75
2023-04-11T11:56:17.024Z,1.02
2023-04-11T11:59:06.701Z,1.00
2023-04-11T12:01:55.402Z,0.75
2023-04-11T12:04:44.267Z,0.90
2023-04-11T12:07:33.800Z,1.02
2023-04-11T12:10:23.770Z,1.15
2023-04-11T12:13:19.005Z,1.08
2023-04-11T12:16:08.909Z,1.10
2023-04-11T12:18:59.970Z,0.88
2023-04-11T12:21:48.517Z,0.93
2023-04-11T12:24:36.973Z,1.17
2023-04-11T12:27:26.728Z,0.75
2023-04-11T12:30:16.076Z,1.10
2023-04-11T12:33:05.010Z,0.70
2023-04-11T12:35:53.463Z,0.80
2023-04-11T12:38:42.235Z,0.80
2023-04-11T12:41:32.628Z,0.82
2023-04-11T12:44:22.642Z,1.10
2023-04-11T12:47:11.142Z,0.98
2023-04-11T12:50:00.046Z,0.93
2023-04-11T12:52:49.292Z,1.10
2023-04-11T12:55:38.114Z,0.93
2023-04-11T12:58:28.830Z,0.60
2023-04-11T13:01:18.991Z,0.80
2023-04-11T13:04:16.804Z,0.80
2023-04-11T13:07:06.333Z,0.95
2023-04-11T13:09:54.794Z,0.70
2023-04-11T13:12:45.112Z,0.95
2023-04-11T13:15:39.872Z,0.77
2023-04-11T13:18:30.058Z,1.02
2023-04-11T13:21:18.545Z,1.00
2023-04-11T13:24:07.367Z,0.65
2023-04-11T13:26:55.897Z,0.80
2023-04-11T13:29:44.360Z,0.85
2023-04-11T13:32:33.264Z,0.80
2023-04-11T13:35:24.809Z,0.90
2023-04-11T13:38:16.072Z,0.70
2023-04-11T13:41:04.617Z,1.00
2023-04-11T13:43:54.142Z,0.73
2023-04-11T13:46:42.528Z,0.85
2023-04-11T13:49:31.238Z,1.00
2023-04-11T13:52:22.020Z,0.60
2023-04-11T13:55:10.993Z,0.60
2023-04-11T13:57:59.435Z,0.80
2023-04-11T14:00:49.549Z,1.17
2023-04-11T14:03:38.233Z,0.90
2023-04-11T14:06:26.827Z,0.75
2023-04-11T14:09:16.810Z,0.73
2023-04-11T14:12:06.791Z,0.98
2023-04-11T14:14:55.413Z,1.15
2023-04-11T14:17:46.731Z,0.77
2023-04-11T14:20:35.609Z,0.88
2023-04-11T14:23:24.065Z,0.73
2023-04-11T14:26:13.820Z,0.75
2023-04-11T14:29:03.129Z,0.85
2023-04-11T14:31:51.716Z,0.60
2023-04-11T14:34:42.082Z,0.90
2023-04-11T14:37:31.852Z,1.13
2023-04-11T14:40:20.532Z,0.65
2023-04-11T14:43:11.137Z,0.63
2023-04-11T14:45:59.721Z,1.05
2023-04-11T14:48:48.144Z,0.68
2023-04-11T14:51:37.838Z,0.77
2023-04-11T14:54:27.086Z,1.10
2023-04-11T14:57:15.636Z,0.70
2023-04-11T15:00:19.703Z,0.75
2023-04-11T15:03:08.540Z,1.00
2023-04-11T15:05:57.124Z,0.93
2023-04-11T15:08:53.394Z,0.80
2023-04-11T15:11:41.898Z,0.77
2023-04-11T15:14:30.344Z,0.65
2023-04-11T15:17:20.262Z,0.65
2023-04-11T15:20:14.381Z,0.60
2023-04-11T15:23:02.814Z,0.70
2023-04-11T15:25:55.193Z,0.82
2023-04-11T15:28:44.426Z,1.10
2023-04-11T15:31:38.563Z,0.55
2023-04-11T15:34:28.566Z,1.10
2023-04-11T15:37:17.159Z,1.00
2023-04-11T15:40:09.377Z,1.00
2023-04-11T15:42:57.809Z,1.02
2023-04-11T15:45:46.329Z,0.70
2023-04-11T15:48:34.761Z,1.10
2023-04-11T15:51:24.742Z,0.65
2023-04-11T15:54:13.237Z,0.90
2023-04-11T15:57:03.637Z,0.90
2023-04-11T15:59:52.134Z,1.27
2023-04-11T16:02:44.739Z,1.00
2023-04-11T16:05:43.127Z,0.77
2023-04-11T16:08:33.266Z,0.77
2023-04-11T16:11:21.783Z,0.77
2023-04-11T16:14:16.600Z,0.70
2023-04-11T16:17:05.006Z,1.00
2023-04-11T16:19:53.970Z,0.95
2023-04-11T16:22:42.401Z,0.73
2023-04-11T16:25:32.538Z,0.90
2023-04-11T16:28:21.002Z,1.02
2023-04-11T16:31:09.548Z,1.05
2023-04-11T16:33:58.221Z,0.93
2023-04-11T16:36:46.936Z,1.00
2023-04-11T16:39:35.619Z,0.90
2023-04-11T16:42:25.607Z,0.82
2023-04-11T16:45:14.598Z,0.88
2023-04-11T16:48:03.308Z,1.77
2023-04-11T16:50:51.816Z,1.30
2023-04-11T16:53:41.152Z,1.08
2023-04-11T16:56:29.667Z,1.42
2023-04-11T16:59:19.809Z,1.00
2023-04-11T17:02:11.221Z,1.25
2023-04-11T17:04:59.940Z,1.17
2023-04-11T17:13:11.363Z,0.98
2023-04-11T17:16:24.645Z,1.20
2023-04-11T17:23:42.457Z,1.15
2023-04-11T17:27:00.044Z,0.80
2023-04-11T17:36:02.297Z,0.82
2023-04-11T17:44:19.661Z,0.82
2023-04-11T17:51:20.645Z,0.93
2023-04-11T17:54:31.075Z,1.20
2023-04-11T18:31:53.024Z,0.98
2023-04-11T18:34:41.622Z,1.17
2023-04-11T18:37:30.278Z,0.98
2023-04-11T18:40:19.461Z,0.93
2023-04-11T18:43:08.329Z,0.82
2023-04-11T18:45:56.902Z,1.08
2023-04-11T18:48:46.805Z,1.17
2023-04-11T18:51:38.046Z,1.17
2023-04-11T18:54:27.266Z,1.13
2023-04-11T18:57:35.836Z,0.98
2023-04-11T19:01:42.575Z,0.80
2023-04-11T19:04:58.072Z,1.17
2023-04-11T19:08:14.753Z,1.02
2023-04-11T19:11:38.099Z,1.40
2023-04-11T19:14:57.093Z,1.05
2023-04-11T19:18:24.068Z,1.30
2023-04-11T19:21:51.389Z,1.38
2023-04-11T19:25:04.255Z,1.20
2023-04-11T19:28:14.120Z,1.00
2023-04-11T19:31:34.939Z,0.98
2023-04-11T19:38:27.242Z,1.00
2023-04-11T19:41:59.836Z,1.45
2023-04-11T19:46:10.107Z,1.45
2023-04-11T19:49:23.736Z,0.95
2023-04-11T19:52:25.177Z,1.17
2023-04-11T19:55:57.401Z,1.42
2023-04-11T19:59:06.232Z,1.70
2023-04-11T20:02:32.332Z,1.40
2023-04-11T20:05:42.056Z,1.50
2023-04-11T20:09:06.404Z,1.50
2023-04-11T20:12:38.406Z,1.48
2023-04-11T20:15:56.882Z,1.33
2023-04-11T20:18:59.859Z,1.55
2023-04-11T20:22:03.833Z,1.75
2023-04-11T20:24:57.707Z,1.60
2023-04-11T20:27:55.107Z,1.67
2023-04-11T20:31:03.717Z,1.70
2023-04-11T20:34:02.329Z,1.80
2023-04-11T20:37:09.399Z,1.58
2023-04-11T20:40:22.719Z,1.33
2023-04-11T20:43:33.995Z,1.50
2023-04-11T20:46:23.846Z,1.92
2023-04-11T20:49:19.433Z,1.55
2023-04-11T20:52:08.196Z,1.38
2023-04-11T20:54:56.918Z,1.70
2023-04-11T20:57:45.856Z,2.00
2023-04-11T21:00:35.981Z,1.83
2023-04-11T21:03:24.651Z,1.70
2023-04-11T21:06:13.434Z,1.48
2023-04-11T21:09:05.507Z,1.30
2023-04-11T21:11:54.216Z,1.40
2023-04-11T21:14:43.150Z,1.50
2023-04-11T21:17:36.281Z,1.55
2023-04-11T21:20:24.790Z,1.70
2023-04-11T21:23:13.276Z,1.75
2023-04-11T21:26:01.949Z,1.20
2023-04-11T21:28:50.529Z,1.45
2023-04-11T21:31:39.238Z,1.70
2023-04-11T21:34:29.426Z,1.85
2023-04-11T21:37:17.976Z,1.23
2023-04-11T21:40:08.317Z,1.52
2023-04-11T21:42:56.780Z,1.63
2023-04-11T21:45:45.620Z,1.70
2023-04-11T21:48:34.172Z,1.50
2023-04-11T21:51:23.890Z,1.70
2023-04-11T21:54:12.241Z,1.52
2023-04-11T21:57:01.042Z,1.60
2023-04-11T21:59:49.411Z,1.83
2023-04-11T22:02:38.472Z,1.50
2023-04-11T22:05:27.512Z,1.70
2023-04-11T22:08:19.948Z,1.77
2023-04-11T22:11:10.390Z,1.80
2023-04-11T22:14:00.825Z,1.75
2023-04-11T22:16:49.950Z,2.00
2023-04-11T22:19:42.077Z,1.42
2023-04-11T22:22:31.034Z,1.92
2023-04-11T22:25:22.164Z,1.67
2023-04-11T22:28:15.637Z,1.60
2023-04-11T22:31:04.905Z,1.73
2023-04-11T22:33:53.607Z,1.90
2023-04-11T22:36:42.011Z,1.73
2023-04-11T22:39:30.729Z,1.65
2023-04-11T22:42:21.233Z,1.58
2023-04-11T22:45:13.694Z,1.73
2023-04-11T22:48:19.156Z,1.60
2023-04-11T22:51:09.216Z,1.50
2023-04-11T22:53:58.056Z,1.70
2023-04-11T22:56:48.525Z,1.45
2023-04-11T22:59:38.352Z,1.30
2023-04-11T23:02:31.481Z,1.75
2023-04-11T23:05:20.676Z,1.70
2023-04-11T23:08:10.063Z,1.50
2023-04-11T23:10:58.485Z,1.50
2023-04-11T23:13:46.997Z,1.17
2023-04-11T23:16:36.844Z,1.80
2023-04-11T23:19:25.221Z,1.67
2023-04-11T23:22:13.591Z,1.52
2023-04-11T23:25:01.941Z,1.33
2023-04-11T23:27:50.321Z,1.63
2023-04-11T23:30:38.877Z,1.23
2023-04-11T23:33:28.624Z,1.45
2023-04-11T23:36:17.172Z,1.60
2023-04-11T23:39:05.695Z,1.52
2023-04-11T23:41:54.001Z,1.60
2023-04-11T23:44:42.301Z,1.20
2023-04-11T23:47:30.913Z,1.30
2023-04-11T23:50:21.001Z,1.75
2023-04-11T23:53:09.417Z,1.20
2023-04-11T23:55:57.850Z,1.50
2023-04-11T23:58:46.145Z,1.80
